Time;durP1;ratioP1;P1;durP2;ratioP2;P2;SDS_P1;SDS_P2;PMS_P1;PMS_P2;Temp;Humidity;BMP_temperature;BMP_pressure;BME280_temperature;BME280_humidity;BME280_pressure;Samples;Min_cycle;Max_cycle;Signal;HPM_P1;HPM_P2
2022/08/06 00:00:08;;;;;;;0.32;0.32;;;;;;;18.22;45.31;101943.59;5164596;28;20138;-81
2022/08/06 00:02:39;;;;;;;0.20;0.20;;;;;;;18.21;45.22;101945.41;5194115;28;20029;-81
2022/08/06 00:05:10;;;;;;;0.28;0.28;;;;;;;18.17;45.23;101946.44;5172905;28;20036;-81
2022/08/06 00:07:41;;;;;;;0.68;0.68;;;;;;;18.15;45.12;101942.97;5164915;28;20036;-81
2022/08/06 00:10:14;;;;;;;0.30;0.30;;;;;;;18.08;46.45;101946.78;5183160;28;20037;-81
2022/08/06 00:12:46;;;;;;;0.20;0.20;;;;;;;18.05;46.43;101946.94;5177842;28;20033;-81
2022/08/06 00:15:20;;;;;;;0.40;0.40;;;;;;;18.02;46.39;101947.03;5204258;28;20022;-81
2022/08/06 00:17:50;;;;;;;0.30;0.30;;;;;;;17.97;46.86;101951.66;5157624;28;20066;-81
2022/08/06 00:20:21;;;;;;;0.20;0.20;;;;;;;17.96;47.22;101952.59;5163021;28;20497;-81
2022/08/06 00:22:52;;;;;;;0.43;0.43;;;;;;;17.92;46.94;101951.81;5177173;28;20038;-81
2022/08/06 00:25:23;;;;;;;0.20;0.20;;;;;;;17.89;47.06;101943.94;5176166;28;25651;-81
2022/08/06 00:27:54;;;;;;;0.20;0.20;;;;;;;17.88;47.37;101955.50;5177154;28;20080;-81
2022/08/06 00:30:27;;;;;;;1.27;1.17;;;;;;;17.85;47.06;101951.16;5171349;28;20040;-81
2022/08/06 00:32:58;;;;;;;0.20;0.20;;;;;;;17.84;47.07;101951.25;5160857;28;20113;-81
2022/08/06 00:35:28;;;;;;;0.20;0.20;;;;;;;17.80;47.66;101955.81;5153378;28;20054;-81
2022/08/06 00:37:59;;;;;;;3.95;1.27;;;;;;;17.78;47.76;101960.28;5145106;28;20049;-81
2022/08/06 00:40:31;;;;;;;7.90;0.40;;;;;;;17.80;47.28;101961.13;5143830;28;20038;-81
2022/08/06 00:43:04;;;;;;;0.20;0.20;;;;;;;17.76;47.36;101959.47;5183719;28;20041;-81
2022/08/06 00:45:35;;;;;;;1.40;0.95;;;;;;;17.77;47.16;101970.03;5173431;28;20111;-81
2022/08/06 00:48:09;;;;;;;0.35;0.35;;;;;;;17.73;47.46;101964.88;5140291;28;20755;-81
2022/08/06 00:50:39;;;;;;;0.20;0.20;;;;;;;17.68;47.63;101967.75;5135517;28;20049;-81
2022/08/06 00:53:10;;;;;;;0.30;0.30;;;;;;;17.65;47.63;101966.97;5174942;28;20041;-81
2022/08/06 00:55:41;;;;;;;0.20;0.20;;;;;;;17.60;47.82;101975.13;5183620;28;20030;-81
2022/08/06 00:58:11;;;;;;;0.30;0.30;;;;;;;17.57;48.25;101968.13;5164329;28;20620;-81
2022/08/06 01:00:42;;;;;;;0.40;0.40;;;;;;;17.56;47.93;101970.84;5190943;28;20108;-81
2022/08/06 01:03:16;;;;;;;0.30;0.30;;;;;;;17.52;47.79;101975.41;5194263;28;20041;-82
2022/08/06 01:05:47;;;;;;;0.70;0.70;;;;;;;17.49;48.24;101970.19;5191410;28;20065;-81
2022/08/06 01:08:18;;;;;;;0.20;0.20;;;;;;;17.45;48.48;101969.44;5177193;28;20063;-81
2022/08/06 01:10:49;;;;;;;0.52;0.52;;;;;;;17.45;48.91;101979.19;5192562;28;20084;-81
2022/08/06 01:13:19;;;;;;;0.40;0.40;;;;;;;17.44;48.74;101977.47;5205669;28;20044;-81
2022/08/06 01:15:56;;;;;;;2.20;1.27;;;;;;;17.39;47.96;101976.78;5211568;28;20041;-82
2022/08/06 01:18:31;;;;;;;0.20;0.20;;;;;;;17.40;47.60;101983.78;5163981;28;20405;-81
2022/08/06 01:21:27;;;;;;;0.80;0.68;;;;;;;17.33;48.04;101985.81;5174625;28;20037;-81
2022/08/06 01:24:19;;;;;;;0.45;0.45;;;;;;;17.28;47.65;101983.31;5191857;28;20057;-81
2022/08/06 01:26:53;;;;;;;0.70;0.70;;;;;;;17.29;46.92;101990.34;5141182;28;20117;-81
2022/08/06 01:29:32;;;;;;;0.57;0.57;;;;;;;17.24;46.78;101984.31;5147882;28;20029;-81
2022/08/06 01:32:11;;;;;;;0.40;0.40;;;;;;;17.20;47.83;101985.38;5169382;28;20651;-81
2022/08/06 01:34:48;;;;;;;0.20;0.20;;;;;;;17.13;48.22;101989.16;5185674;28;20034;-82
2022/08/06 01:37:48;;;;;;;1.27;1.00;;;;;;;17.10;47.94;101999.84;5162923;28;20474;-82
2022/08/06 01:40:28;;;;;;;0.63;0.63;;;;;;;17.07;48.68;101994.66;5159564;28;20037;-81
2022/08/06 01:43:00;;;;;;;0.45;0.45;;;;;;;17.02;49.22;101996.59;5188730;28;20060;-81
2022/08/06 01:45:34;;;;;;;0.65;0.65;;;;;;;17.01;48.98;101997.50;5157567;28;20186;-81
2022/08/06 01:48:19;;;;;;;0.45;0.45;;;;;;;17.01;47.69;102002.81;5162053;28;20030;-81
2022/08/06 01:50:54;;;;;;;2.80;1.00;;;;;;;16.96;49.17;102002.97;5150688;28;20049;-81
2022/08/06 01:53:31;;;;;;;0.30;0.30;;;;;;;16.91;49.87;102005.75;5190083;28;20038;-81
2022/08/06 01:56:07;;;;;;;0.40;0.40;;;;;;;16.88;48.67;102008.50;5154809;28;20042;-81
2022/08/06 01:58:42;;;;;;;0.20;0.20;;;;;;;16.90;47.67;102005.81;5156447;28;20483;-81
2022/08/06 02:01:15;;;;;;;0.40;0.40;;;;;;;16.84;48.63;102010.41;5145258;28;20495;-81
2022/08/06 02:03:49;;;;;;;0.40;0.40;;;;;;;16.81;48.83;102010.50;5170555;28;20301;-81
2022/08/06 02:06:24;;;;;;;0.30;0.30;;;;;;;16.79;49.36;102022.06;5172020;28;20058;-81
2022/08/06 02:08:57;;;;;;;0.65;0.65;;;;;;;16.78;48.66;102018.53;5161530;28;20030;-81
2022/08/06 02:11:28;;;;;;;0.35;0.35;;;;;;;16.75;48.90;102015.13;5159120;28;20140;-81
2022/08/06 02:14:00;;;;;;;0.40;0.40;;;;;;;16.72;49.13;102017.88;5175385;28;20093;-81
2022/08/06 02:16:36;;;;;;;2.03;1.20;;;;;;;16.68;49.69;102020.63;5177670;28;20046;-81
2022/08/06 02:19:13;;;;;;;0.20;0.20;;;;;;;16.66;49.47;102018.94;5154898;28;20666;-81
2022/08/06 02:21:46;;;;;;;0.30;0.30;;;;;;;16.63;49.57;102016.38;5150790;28;20041;-81
2022/08/06 02:24:18;;;;;;;3.28;1.90;;;;;;;16.58;50.19;102013.03;5180715;28;20101;-81
2022/08/06 02:26:49;;;;;;;0.20;0.20;;;;;;;16.56;50.13;102021.03;5137976;28;20042;-81
2022/08/06 02:29:21;;;;;;;7.78;1.77;;;;;;;16.52;49.69;102019.38;5156826;28;20022;-81
2022/08/06 02:31:52;;;;;;;0.45;0.45;;;;;;;16.52;50.18;102017.59;5180981;28;20050;-81
2022/08/06 02:34:23;;;;;;;0.60;0.60;;;;;;;16.49;49.87;102023.00;5174295;28;20026;-81
2022/08/06 02:37:05;;;;;;;0.30;0.30;;;;;;;16.47;49.71;102026.59;5160923;28;20050;-81
2022/08/06 02:39:49;;;;;;;0.68;0.68;;;;;;;16.42;50.60;102032.03;5177554;28;20054;-81
2022/08/06 02:42:26;;;;;;;2.03;1.08;;;;;;;16.41;50.92;102032.06;5151656;28;20576;-81
2022/08/06 02:45:03;;;;;;;1.17;0.75;;;;;;;16.38;49.79;102034.84;5189928;28;20034;-81
2022/08/06 02:48:04;;;;;;;1.60;1.50;;;;;;;16.36;49.14;102030.44;5140927;28;20058;-81
2022/08/06 02:50:39;;;;;;;0.30;0.30;;;;;;;16.32;50.36;102027.94;5140347;28;20041;-81
2022/08/06 02:53:15;;;;;;;0.30;0.30;;;;;;;16.28;49.67;102032.47;5175180;28;20057;-81
2022/08/06 02:55:49;;;;;;;0.40;0.40;;;;;;;16.24;50.26;102041.41;5188862;28;20037;-81
2022/08/06 02:58:25;;;;;;;2.38;0.40;;;;;;;16.21;50.05;102036.22;5158996;28;20036;-81
2022/08/06 03:00:59;;;;;;;0.30;0.30;;;;;;;16.20;50.40;102045.06;5218060;28;20029;-81
2022/08/06 03:03:33;;;;;;;0.55;0.55;;;;;;;16.15;50.07;102036.41;5165488;28;20086;-81
2022/08/06 03:06:05;;;;;;;0.40;0.40;;;;;;;16.13;51.10;102048.81;5118022;28;20046;-81
2022/08/06 03:08:46;;;;;;;0.60;0.60;;;;;;;16.10;51.28;102047.13;5128630;28;20038;-81
2022/08/06 03:11:24;;;;;;;0.38;0.38;;;;;;;16.10;50.29;102046.25;5110986;28;20077;-81
2022/08/06 03:13:57;;;;;;;0.52;0.52;;;;;;;16.07;51.13;102043.69;5126122;28;20066;-81
2022/08/06 03:16:34;;;;;;;0.22;0.22;;;;;;;16.03;51.28;102045.56;5155092;28;20117;-81
2022/08/06 03:19:06;;;;;;;0.80;0.70;;;;;;;16.00;51.52;102043.00;5164879;28;20108;-81
2022/08/06 03:21:39;;;;;;;0.73;0.73;;;;;;;15.98;50.66;102039.53;5164266;28;20066;-81
2022/08/06 03:24:12;;;;;;;0.85;0.60;;;;;;;15.94;50.90;102046.69;5171906;28;20124;-81
2022/08/06 03:26:44;;;;;;;0.93;0.88;;;;;;;15.93;50.70;102042.31;5150987;28;20061;-81
2022/08/06 03:29:16;;;;;;;1.00;1.00;;;;;;;15.91;50.98;102052.06;5130989;28;20038;-81
2022/08/06 03:31:46;;;;;;;0.30;0.30;;;;;;;15.89;50.00;102046.81;5131604;28;20042;-81
2022/08/06 03:34:18;;;;;;;0.30;0.30;;;;;;;15.88;49.74;102042.44;5159573;28;20460;-81
2022/08/06 03:36:51;;;;;;;1.02;0.60;;;;;;;15.84;50.63;102047.84;5197953;28;20136;-81
2022/08/06 03:39:23;;;;;;;0.90;0.52;;;;;;;15.80;51.15;102052.31;5157609;28;20478;-81
2022/08/06 03:41:54;;;;;;;1.25;0.25;;;;;;;15.78;52.04;102053.28;5178651;28;20132;-81
2022/08/06 03:44:25;;;;;;;0.47;0.47;;;;;;;15.76;51.50;102057.75;5193655;28;20085;-80
2022/08/06 03:47:03;;;;;;;0.20;0.20;;;;;;;15.73;52.17;102056.06;5133502;28;20130;-80
2022/08/06 03:49:41;;;;;;;0.40;0.40;;;;;;;15.70;50.68;102061.47;5170678;28;20057;-80
2022/08/06 03:52:16;;;;;;;0.30;0.30;;;;;;;15.67;51.30;102059.72;5169247;28;20095;-80
2022/08/06 03:54:49;;;;;;;0.20;0.20;;;;;;;15.68;50.39;102058.81;5179242;28;20025;-80
2022/08/06 03:57:25;;;;;;;0.20;0.20;;;;;;;15.65;50.10;102050.09;5169055;28;20057;-80
2022/08/06 04:00:00;;;;;;;0.85;0.85;;;;;;;15.63;50.05;102055.44;5170660;28;20541;-80
2022/08/06 04:02:38;;;;;;;0.63;0.63;;;;;;;15.57;50.82;102055.63;5174555;28;20093;-80
2022/08/06 04:05:11;;;;;;;0.50;0.50;;;;;;;15.53;51.32;102059.25;5171988;28;20784;-80
2022/08/06 04:07:42;;;;;;;2.25;1.00;;;;;;;15.51;51.97;102069.00;5176604;28;20034;-80
2022/08/06 04:10:14;;;;;;;1.83;1.63;;;;;;;15.51;50.25;102066.34;5191968;28;20033;-80
2022/08/06 04:12:48;;;;;;;1.30;1.17;;;;;;;15.48;50.53;102075.22;5185420;28;20034;-80
2022/08/06 04:15:19;;;;;;;0.43;0.43;;;;;;;15.46;51.41;102068.25;5177539;28;20041;-80
2022/08/06 04:17:51;;;;;;;0.45;0.45;;;;;;;15.45;52.01;102077.09;5177323;28;20697;-80
2022/08/06 04:20:25;;;;;;;0.30;0.30;;;;;;;15.45;50.77;102080.63;5159594;28;20029;-80
2022/08/06 04:22:56;;;;;;;1.25;1.15;;;;;;;15.43;50.93;102082.44;5194037;28;20041;-79
2022/08/06 04:25:31;;;;;;;1.27;0.90;;;;;;;15.47;50.20;102085.88;5192466;28;20042;-80
2022/08/06 04:28:03;;;;;;;6.35;0.50;;;;;;;15.39;51.58;102084.28;5158965;28;20092;-80
2022/08/06 04:30:36;;;;;;;21.30;2.83;;;;;;;15.41;51.85;102093.03;5177412;28;20037;-80
2022/08/06 04:33:11;;;;;;;6.18;0.75;;;;;;;15.39;51.19;102088.69;5166657;28;20030;-80
2022/08/06 04:35:42;;;;;;;2.92;1.70;;;;;;;15.35;51.58;102092.34;5161042;28;20030;-80
2022/08/06 04:38:14;;;;;;;7.95;1.30;;;;;;;15.32;52.43;102088.00;5145324;28;20060;-80
2022/08/06 04:40:46;;;;;;;0.30;0.30;;;;;;;15.31;52.32;102098.59;5140058;28;20131;-80
2022/08/06 04:43:16;;;;;;;0.35;0.35;;;;;;;15.26;52.46;102094.31;5148445;28;20757;-80
2022/08/06 04:45:48;;;;;;;0.55;0.55;;;;;;;15.29;50.53;102087.22;5194216;28;20058;-80
2022/08/06 04:48:20;;;;;;;0.22;0.22;;;;;;;15.26;51.57;102091.66;5162631;28;20030;-80
2022/08/06 04:50:51;;;;;;;1.08;0.95;;;;;;;15.22;51.98;102089.13;5163299;28;20044;-80
2022/08/06 04:53:22;;;;;;;0.50;0.50;;;;;;;15.22;52.34;102100.56;5140667;28;20038;-80
2022/08/06 04:55:52;;;;;;;0.82;0.82;;;;;;;15.22;52.97;102107.63;5136434;28;20049;-80
2022/08/06 04:58:23;;;;;;;0.43;0.43;;;;;;;15.23;51.98;102115.53;5155223;28;20517;-80
2022/08/06 05:00:53;;;;;;;0.22;0.22;;;;;;;15.21;52.53;102117.31;5159862;28;20092;-80
2022/08/06 05:03:24;;;;;;;0.82;0.82;;;;;;;15.22;53.11;102107.63;5166590;28;20083;-80
2022/08/06 05:06:06;;;;;;;1.02;1.02;;;;;;;15.21;53.00;102122.63;5182210;28;20057;-80
2022/08/06 05:08:40;;;;;;;0.52;0.52;;;;;;;15.22;52.42;102120.84;5149177;28;20418;-80
2022/08/06 05:11:19;;;;;;;1.00;0.80;;;;;;;15.20;52.39;102126.19;5130312;28;20679;-80
2022/08/06 05:13:57;;;;;;;0.40;0.40;;;;;;;15.21;52.91;102129.69;5144877;28;20033;-80
2022/08/06 05:16:32;;;;;;;0.52;0.52;;;;;;;15.24;51.10;102132.28;5161521;28;20067;-80
2022/08/06 05:19:09;;;;;;;0.60;0.60;;;;;;;15.23;52.26;102130.53;5163404;28;20124;-80
2022/08/06 05:21:41;;;;;;;1.10;0.63;;;;;;;15.23;51.89;102138.47;5153795;28;20045;-79
2022/08/06 05:24:12;;;;;;;1.90;0.95;;;;;;;15.23;51.59;102133.19;5165226;28;20030;-80
2022/08/06 05:26:43;;;;;;;1.23;0.82;;;;;;;15.24;52.30;102133.13;5133355;28;20117;-79
2022/08/06 05:29:19;;;;;;;0.30;0.30;;;;;;;15.24;51.61;102134.91;5179241;28;20101;-80
2022/08/06 05:31:49;;;;;;;0.30;0.30;;;;;;;15.23;52.12;102141.09;5186775;28;20102;-80
2022/08/06 05:34:20;;;;;;;0.77;0.77;;;;;;;15.25;51.46;102142.81;5166565;28;20477;-79
2022/08/06 05:36:51;;;;;;;0.32;0.30;;;;;;;15.26;52.57;102141.00;5178987;28;20132;-81
2022/08/06 05:39:22;;;;;;;0.43;0.43;;;;;;;15.25;52.29;102139.28;5153833;28;20128;-78
2022/08/06 05:41:53;;;;;;;0.60;0.60;;;;;;;15.28;52.01;102136.56;5169841;28;20052;-79
2022/08/06 05:44:24;;;;;;;0.43;0.43;;;;;;;15.28;52.25;102144.50;5189447;28;20749;-79
2022/08/06 05:47:03;;;;;;;0.82;0.52;;;;;;;15.29;52.40;102146.25;5172538;28;20037;-80
2022/08/06 05:50:02;;;;;;;0.40;0.40;;;;;;;15.42;54.31;102152.97;5177155;28;20703;-81
2022/08/06 05:52:56;;;;;;;0.52;0.52;;;;;;;15.49;54.51;102147.53;5172576;28;20037;-81
2022/08/06 05:55:45;;;;;;;0.73;0.73;;;;;;;15.42;53.06;102149.47;5176147;28;20121;-80
2022/08/06 05:58:27;;;;;;;0.30;0.30;;;;;;;15.36;53.83;102153.13;5153228;28;20713;-79
2022/08/06 06:01:01;;;;;;;4.20;0.55;;;;;;;15.36;53.81;102158.41;5179642;28;20038;-80
2022/08/06 06:03:37;;;;;;;0.93;0.93;;;;;;;15.40;53.01;102148.63;5157917;28;20120;-79
2022/08/06 06:06:08;;;;;;;0.55;0.55;;;;;;;15.39;53.07;102153.06;5169405;28;20050;-79
2022/08/06 06:08:39;;;;;;;0.20;0.20;;;;;;;15.41;53.46;102151.22;5150818;28;20065;-79
2022/08/06 06:11:10;;;;;;;0.38;0.38;;;;;;;15.43;53.31;102154.69;5168724;28;20041;-80
2022/08/06 06:13:42;;;;;;;0.28;0.28;;;;;;;15.47;53.74;102159.91;5159088;28;20065;-78
2022/08/06 06:16:26;;;;;;;0.60;0.60;;;;;;;15.47;54.82;102157.28;5173681;28;20056;-79
2022/08/06 06:19:27;;;;;;;0.30;0.30;;;;;;;15.53;54.78;102159.75;5140757;28;20034;-79
2022/08/06 06:22:12;;;;;;;1.67;1.58;;;;;;;15.54;53.69;102164.16;5177411;28;20144;-79
2022/08/06 06:24:50;;;;;;;1.75;1.60;;;;;;;15.58;55.35;102155.22;5163088;28;20041;-79
2022/08/06 06:27:39;;;;;;;0.82;0.82;;;;;;;15.60;57.60;102161.34;5140706;28;20126;-79
2022/08/06 06:30:28;;;;;;;2.10;1.25;;;;;;;15.59;54.35;102162.25;5160045;28;20030;-79
2022/08/06 06:33:15;;;;;;;0.20;0.20;;;;;;;15.67;55.01;102162.91;5216040;28;20018;-79
2022/08/06 06:35:57;;;;;;;0.40;0.40;;;;;;;15.65;56.34;102178.00;5199031;28;20033;-79
2022/08/06 06:38:46;;;;;;;0.43;0.43;;;;;;;15.67;54.36;102164.72;5208438;28;20030;-79
2022/08/06 06:41:43;;;;;;;0.25;0.25;;;;;;;15.77;55.53;102166.22;5205297;28;20093;-80
2022/08/06 06:44:32;;;;;;;0.45;0.43;;;;;;;15.76;54.17;102169.78;5181122;28;20041;-80
2022/08/06 06:47:33;;;;;;;0.40;0.40;;;;;;;15.80;55.82;102168.75;5141576;28;20124;-80
2022/08/06 06:50:13;;;;;;;0.30;0.30;;;;;;;15.85;55.80;102171.34;5185406;28;20090;-80
2022/08/06 06:52:47;;;;;;;0.82;0.82;;;;;;;15.83;56.08;102173.09;5148900;28;20057;-80
2022/08/06 06:55:32;;;;;;;3.58;2.53;;;;;;;15.82;57.12;102177.53;5146764;28;20057;-81
2022/08/06 06:58:15;;;;;;;1.92;1.75;;;;;;;15.86;55.21;102178.38;5164047;28;20065;-81
2022/08/06 07:00:46;;;;;;;0.70;0.70;;;;;;;15.86;56.09;102178.38;5163704;28;20057;-81
2022/08/06 07:03:18;;;;;;;0.47;0.47;;;;;;;15.96;55.00;102182.50;5165910;28;20042;-81
2022/08/06 07:05:50;;;;;;;0.35;0.35;;;;;;;15.99;55.14;102178.91;5180127;28;20465;-81
2022/08/06 07:08:24;;;;;;;0.85;0.85;;;;;;;16.01;56.68;102185.91;5178909;28;20065;-80
2022/08/06 07:10:57;;;;;;;5.80;0.38;;;;;;;16.04;54.77;102188.47;5173299;28;20037;-80
2022/08/06 07:13:29;;;;;;;1.90;1.10;;;;;;;16.13;56.67;102191.78;5157364;28;20041;-80
2022/08/06 07:16:03;;;;;;;0.50;0.50;;;;;;;16.10;55.71;102191.84;5140549;28;20454;-80
2022/08/06 07:18:35;;;;;;;1.65;1.50;;;;;;;16.12;57.35;102195.34;5139010;28;20030;-81
2022/08/06 07:21:12;;;;;;;0.77;0.77;;;;;;;16.14;55.85;102199.69;5186837;28;20049;-80
2022/08/06 07:23:51;;;;;;;1.00;0.75;;;;;;;16.17;55.85;102199.59;5167899;28;20530;-81
2022/08/06 07:26:23;;;;;;;1.58;1.23;;;;;;;16.25;54.88;102204.69;5194252;28;20125;-81
2022/08/06 07:28:55;;;;;;;1.67;1.10;;;;;;;16.29;56.16;102203.69;5175424;28;20030;-80
2022/08/06 07:31:26;;;;;;;3.80;1.15;;;;;;;16.33;55.60;102204.47;5179323;28;20066;-80
2022/08/06 07:33:58;;;;;;;0.30;0.30;;;;;;;16.39;55.65;102203.44;5156231;28;20030;-82
2022/08/06 07:36:36;;;;;;;1.08;1.05;;;;;;;16.36;56.19;102205.25;5146529;28;20061;-81
2022/08/06 07:39:15;;;;;;;0.82;0.57;;;;;;;16.39;56.51;102198.16;5138030;28;20044;-81
2022/08/06 07:41:47;;;;;;;2.20;1.50;;;;;;;16.47;55.40;102199.66;5139572;28;20439;-81
2022/08/06 07:44:21;;;;;;;0.57;0.57;;;;;;;16.51;56.13;102205.72;5168943;28;20042;-81
2022/08/06 07:46:55;;;;;;;1.48;0.40;;;;;;;16.57;55.99;102207.34;5175817;28;20040;-81
2022/08/06 07:49:35;;;;;;;0.20;0.20;;;;;;;16.63;55.72;102202.75;5161091;28;20522;-81
2022/08/06 07:52:10;;;;;;;8.88;1.95;;;;;;;16.60;56.27;102201.97;5176704;28;20041;-81
2022/08/06 07:54:41;;;;;;;1.10;1.00;;;;;;;16.67;55.58;102209.69;5159593;28;20799;-80
2022/08/06 07:57:13;;;;;;;0.20;0.20;;;;;;;16.76;55.46;102202.38;5197710;28;20167;-81
2022/08/06 07:59:44;;;;;;;0.52;0.52;;;;;;;16.75;55.84;102211.22;5176928;28;20038;-81
2022/08/06 08:02:16;;;;;;;0.30;0.30;;;;;;;16.78;55.36;102217.31;5180187;28;20034;-80
2022/08/06 08:07:38;;;;;;;0.30;0.30;;;;;;;16.87;54.32;102210.00;5170018;28;20105;-80
2022/08/06 08:10:12;;;;;;;0.55;0.55;;;;;;;16.84;54.64;102213.63;5169723;28;20133;-81
2022/08/06 08:12:45;;;;;;;0.43;0.43;;;;;;;16.83;54.71;102203.94;5180878;28;20046;-82
2022/08/06 08:15:17;;;;;;;0.80;0.50;;;;;;;16.91;54.27;102207.22;5136996;28;20541;-80
2022/08/06 08:17:48;;;;;;;1.15;1.00;;;;;;;16.89;54.90;102209.06;5161070;28;20046;-81
2022/08/06 08:20:19;;;;;;;0.50;0.22;;;;;;;16.92;54.19;102213.41;5162581;28;20033;-81
2022/08/06 08:22:50;;;;;;;0.40;0.40;;;;;;;16.94;53.91;102215.13;5162094;28;20038;-80
2022/08/06 08:25:20;;;;;;;0.40;0.40;;;;;;;17.00;53.87;102203.47;5161786;28;20111;-81
2022/08/06 08:27:51;;;;;;;0.30;0.30;;;;;;;17.17;53.24;102212.69;5183113;28;20674;-80
2022/08/06 08:30:22;;;;;;;0.20;0.20;;;;;;;17.06;53.53;102208.56;5145367;28;20141;-80
2022/08/06 08:32:52;;;;;;;0.20;0.20;;;;;;;17.08;53.18;102213.81;5147284;28;20140;-81
2022/08/06 08:35:23;;;;;;;1.05;0.90;;;;;;;17.08;52.79;102204.09;5165605;28;20049;-81
2022/08/06 08:37:53;;;;;;;0.20;0.20;;;;;;;17.09;53.17;102211.16;5146466;28;20034;-81
2022/08/06 08:40:26;;;;;;;0.55;0.55;;;;;;;17.18;53.39;102206.47;5172358;28;20047;-81
2022/08/06 08:43:01;;;;;;;0.32;0.32;;;;;;;17.21;53.18;102214.31;5193177;28;20033;-81
2022/08/06 08:45:34;;;;;;;0.30;0.30;;;;;;;17.20;52.93;102215.22;5185141;28;20553;-81
2022/08/06 08:48:10;;;;;;;0.28;0.28;;;;;;;17.28;52.58;102208.78;5184538;28;20046;-81
2022/08/06 08:50:42;;;;;;;0.75;0.52;;;;;;;17.31;52.54;102211.31;5175442;28;20461;-82
2022/08/06 08:53:20;;;;;;;4.88;1.65;;;;;;;17.34;52.63;102202.41;5194048;28;20378;-82
2022/08/06 08:55:52;;;;;;;0.38;0.38;;;;;;;17.42;52.16;102202.16;5159547;28;20041;-82
2022/08/06 08:58:23;;;;;;;0.30;0.30;;;;;;;17.41;52.44;102203.94;5197153;28;20514;-81
2022/08/06 09:00:54;;;;;;;0.90;0.47;;;;;;;17.40;52.26;102198.66;5164739;28;20446;-81
2022/08/06 09:03:25;;;;;;;0.40;0.40;;;;;;;17.43;52.30;102204.78;5195357;28;20091;-81
2022/08/06 09:05:57;;;;;;;0.20;0.20;;;;;;;17.44;51.84;102202.97;5167522;28;20223;-81
2022/08/06 09:08:27;;;;;;;0.73;0.73;;;;;;;17.45;52.17;102202.06;5157401;28;20026;-81
2022/08/06 09:10:59;;;;;;;0.55;0.50;;;;;;;17.53;51.97;102200.03;5147874;28;20044;-81
2022/08/06 09:13:30;;;;;;;0.35;0.35;;;;;;;17.61;51.03;102208.59;5173333;28;21170;-81
2022/08/06 09:16:01;;;;;;;0.35;0.35;;;;;;;17.57;50.91;102196.34;5185481;28;20046;-81
2022/08/06 09:18:33;;;;;;;5.13;1.27;;;;;;;17.58;50.85;102208.69;5189509;28;20058;-82
2022/08/06 09:21:04;;;;;;;0.30;0.30;;;;;;;17.61;50.61;102205.94;5168903;28;20040;-81
2022/08/06 09:23:39;;;;;;;2.00;0.40;;;;;;;17.69;50.97;102207.47;5180357;28;20091;-81
2022/08/06 09:26:10;;;;;;;0.63;0.63;;;;;;;17.70;51.08;102201.25;5187280;28;20449;-82
2022/08/06 09:28:42;;;;;;;0.90;0.90;;;;;;;17.74;50.61;102205.53;5173094;28;20049;-81
2022/08/06 09:31:17;;;;;;;0.57;0.57;;;;;;;17.87;50.73;102213.94;5197411;28;20069;-81
2022/08/06 09:34:04;;;;;;;0.60;0.60;;;;;;;17.87;50.70;102214.81;5189365;28;20480;-81
2022/08/06 09:36:46;;;;;;;0.30;0.30;;;;;;;17.85;50.50;102207.84;5167393;28;20053;-81
2022/08/06 09:39:16;;;;;;;0.20;0.20;;;;;;;17.89;50.62;102209.47;5175597;28;20021;-81
2022/08/06 09:41:49;;;;;;;0.88;0.88;;;;;;;17.88;50.71;102205.94;5170690;28;20032;-80
2022/08/06 09:44:19;;;;;;;0.55;0.55;;;;;;;18.04;50.26;102213.41;5176728;28;20033;-80
2022/08/06 09:46:50;;;;;;;1.05;0.95;;;;;;;18.00;50.37;102206.47;5186439;28;20081;-80
2022/08/06 09:49:21;;;;;;;2.60;1.42;;;;;;;18.02;50.39;102213.44;5171157;28;20037;-79
2022/08/06 09:52:12;;;;;;;0.30;0.30;;;;;;;18.07;50.07;102207.97;5156100;28;20049;-79
2022/08/06 09:54:42;;;;;;;0.40;0.40;;;;;;;18.09;50.25;102211.44;5176293;28;20108;-79
2022/08/06 09:57:13;;;;;;;0.85;0.85;;;;;;;18.13;49.87;102209.56;5153445;28;20058;-80
2022/08/06 09:59:47;;;;;;;0.52;0.52;;;;;;;18.07;49.52;102210.63;5168072;28;20045;-80
2022/08/06 10:02:20;;;;;;;0.55;0.55;;;;;;;18.10;49.88;102215.84;5180367;28;20113;-80
2022/08/06 10:04:51;;;;;;;0.35;0.35;;;;;;;18.12;49.69;102214.00;5151525;28;20826;-80
2022/08/06 10:07:30;;;;;;;1.13;1.08;;;;;;;18.15;49.38;102213.88;5167160;28;20069;-81
2022/08/06 10:10:03;;;;;;;1.65;1.38;;;;;;;18.21;49.35;102213.69;5142866;28;20037;-79
2022/08/06 10:12:34;;;;;;;;;;;;;;;18.25;49.08;102214.44;5161103;28;20081;-80
2022/08/06 10:15:08;;;;;;;0.50;0.50;;;;;;;18.33;49.24;102223.00;5175315;28;19978;-80
2022/08/06 10:17:46;;;;;;;10.02;2.03;;;;;;;18.36;49.33;102217.56;5167683;28;20133;-80
2022/08/06 10:20:18;;;;;;;1.73;1.02;;;;;;;18.36;48.74;102209.59;5172721;28;20033;-79
2022/08/06 10:22:54;;;;;;;0.40;0.40;;;;;;;18.50;48.97;102214.41;5212064;28;20045;-79
2022/08/06 10:25:27;;;;;;;1.98;1.15;;;;;;;18.52;48.96;102211.69;5194228;28;20141;-79
2022/08/06 10:28:00;;;;;;;0.25;0.25;;;;;;;18.54;49.40;102210.72;5155551;28;20061;-81
2022/08/06 10:30:39;;;;;;;0.55;0.52;;;;;;;18.60;48.23;102208.75;5176320;28;20058;-80
2022/08/06 10:33:12;;;;;;;0.35;0.35;;;;;;;18.62;47.23;102209.56;5158378;28;20057;-81
2022/08/06 10:35:45;;;;;;;0.60;0.60;;;;;;;18.65;47.27;102207.66;5173421;28;20426;-80
2022/08/06 10:38:21;;;;;;;0.90;0.90;;;;;;;18.72;48.31;102208.28;5140341;28;20026;-80
2022/08/06 10:40:53;;;;;;;0.30;0.30;;;;;;;18.78;48.57;102202.75;5177631;28;20041;-80
2022/08/06 10:43:26;;;;;;;11.15;0.65;;;;;;;18.87;48.39;102199.75;5155503;28;20065;-81
2022/08/06 10:45:56;;;;;;;0.30;0.30;;;;;;;18.89;48.36;102194.34;5156383;28;20034;-81
2022/08/06 10:48:27;;;;;;;1.98;0.50;;;;;;;18.92;48.29;102198.69;5162205;28;20038;-81
2022/08/06 10:50:58;;;;;;;0.43;0.38;;;;;;;18.94;46.70;102196.88;5158110;28;20042;-80
2022/08/06 10:53:31;;;;;;;0.50;0.50;;;;;;;19.03;47.43;102200.03;5160250;28;20088;-80
2022/08/06 10:56:04;;;;;;;0.45;0.45;;;;;;;19.07;47.87;102208.75;5171756;28;20046;-80
2022/08/06 10:58:36;;;;;;;0.35;0.35;;;;;;;19.11;48.06;102198.84;5180332;28;20044;-80
2022/08/06 11:01:17;;;;;;;0.40;0.40;;;;;;;19.14;47.69;102193.41;5169851;28;20057;-80
2022/08/06 11:04:19;;;;;;;0.30;0.30;;;;;;;19.24;47.99;102201.91;5192140;28;20095;-81
2022/08/06 11:07:17;;;;;;;0.57;0.57;;;;;;;19.26;47.24;102192.06;5127871;28;20045;-80
2022/08/06 11:10:15;;;;;;;0.63;0.57;;;;;;;19.32;45.91;102189.16;5190254;28;20099;-80
2022/08/06 11:13:34;;;;;;;0.30;0.30;;;;;;;19.41;47.27;102191.44;5156796;28;20125;-80
2022/08/06 11:16:21;;;;;;;0.30;0.30;;;;;;;19.45;46.51;102186.84;5131947;28;20214;-80
2022/08/06 11:18:58;;;;;;;12.27;1.70;;;;;;;19.43;46.42;102186.91;5182876;28;20037;-80
2022/08/06 11:21:39;;;;;;;0.43;0.43;;;;;;;19.43;46.12;102183.38;5179756;28;20049;-80
2022/08/06 11:24:11;;;;;;;0.30;0.30;;;;;;;19.47;46.09;102182.34;5177900;28;20092;-80
2022/08/06 11:26:43;;;;;;;0.20;0.20;;;;;;;19.46;45.99;102184.13;5174848;28;20041;-80
2022/08/06 11:29:17;;;;;;;0.32;0.32;;;;;;;19.59;45.33;102181.81;5156658;28;20030;-80
2022/08/06 11:31:50;;;;;;;0.35;0.35;;;;;;;19.55;44.69;102176.69;5169270;28;20123;-80
2022/08/06 11:34:21;;;;;;;0.25;0.25;;;;;;;19.73;44.35;102175.06;5160364;28;20085;-80
2022/08/06 11:36:58;;;;;;;0.35;0.35;;;;;;;19.73;44.79;102172.38;5181584;28;20129;-80
2022/08/06 11:39:29;;;;;;;0.20;0.20;;;;;;;19.64;45.15;102176.28;5177758;28;20057;-80
2022/08/06 11:42:02;;;;;;;0.20;0.20;;;;;;;19.72;45.66;102168.84;5163600;28;20671;-81
2022/08/06 11:44:34;;;;;;;;;;;;;;;19.73;45.84;102167.06;5157792;28;20409;-80
2022/08/06 11:47:09;;;;;;;0.30;0.30;;;;;;;19.89;45.49;102162.84;5177099;28;20128;-80
2022/08/06 11:49:42;;;;;;;0.98;0.98;;;;;;;19.85;46.06;102160.38;5169640;28;20064;-80
2022/08/06 11:52:31;;;;;;;0.40;0.40;;;;;;;19.93;45.33;102158.25;5199625;28;20037;-80
2022/08/06 11:55:06;;;;;;;0.22;0.22;;;;;;;19.94;45.42;102168.81;5195017;28;20040;-80
2022/08/06 11:57:40;;;;;;;0.30;0.30;;;;;;;19.95;44.76;102159.03;5182420;28;20412;-81
2022/08/06 12:00:16;;;;;;;0.30;0.30;;;;;;;20.00;43.64;102161.50;5156602;28;20108;-80
2022/08/06 12:02:51;;;;;;;0.30;0.30;;;;;;;20.13;44.88;102158.22;5192960;28;20033;-80
2022/08/06 12:05:21;;;;;;;0.43;0.43;;;;;;;20.18;44.39;102165.16;5164946;28;20045;-80